createdAt,value
2022-08-09T00:00:00.492Z,25.17
2022-08-09T00:01:15.568Z,25.20
2022-08-09T00:02:18.526Z,25.16
2022-08-09T00:04:06.166Z,25.17
2022-08-09T00:04:43.182Z,25.21
2022-08-09T00:06:17.348Z,25.09
2022-08-09T00:07:23.730Z,24.96
2022-08-09T00:08:32.655Z,25.12
2022-08-09T00:09:34.843Z,25.23
2022-08-09T00:10:39.900Z,25.18
2022-08-09T00:12:04.010Z,25.01
2022-08-09T00:13:03.831Z,25.13
2022-08-09T00:14:06.986Z,24.75
2022-08-09T00:15:14.587Z,25.03
2022-08-09T00:16:17.815Z,25.06
2022-08-09T00:18:05.675Z,25.07
2022-08-09T00:18:50.351Z,24.39
2022-08-09T00:19:52.200Z,24.59
2022-08-09T00:20:56.384Z,25.15
2022-08-09T00:21:59.970Z,25.13
2022-08-09T00:23:53.805Z,24.97
2022-08-09T00:24:27.654Z,25.08
2022-08-09T00:25:32.937Z,24.74
2022-08-09T00:26:35.559Z,25.04
2022-08-09T00:27:43.193Z,24.98
2022-08-09T00:28:52.637Z,25.15
2022-08-09T00:30:24.476Z,24.93
2022-08-09T00:31:56.763Z,24.90
2022-08-09T00:32:39.104Z,25.04
2022-08-09T00:33:51.156Z,25.03
2022-08-09T00:34:53.542Z,25.07
2022-08-09T00:35:56.056Z,24.68
2022-08-09T00:36:57.840Z,25.13
2022-08-09T00:38:00.701Z,24.16
2022-08-09T00:39:04.895Z,24.88
2022-08-09T00:40:12.838Z,25.04
2022-08-09T00:44:13.138Z,24.83
2022-08-09T00:44:14.088Z,25.09
2022-08-09T00:44:14.248Z,24.89
2022-08-09T00:45:26.483Z,25.09
2022-08-09T00:46:45.375Z,24.61
2022-08-09T00:47:50.080Z,25.02
2022-08-09T00:48:56.164Z,24.70
2022-08-09T00:49:58.819Z,25.02
2022-08-09T00:51:10.413Z,25.08
2022-08-09T00:52:15.940Z,25.00
2022-08-09T00:53:24.038Z,25.03
2022-08-09T00:54:35.401Z,24.97
2022-08-09T00:56:04.538Z,25.03
2022-08-09T00:57:01.175Z,24.82
2022-08-09T00:58:03.235Z,25.09
2022-08-09T00:59:08.138Z,24.99
2022-08-09T01:00:21.411Z,24.42
2022-08-09T01:01:45.113Z,24.87
2022-08-09T01:02:50.706Z,24.58
2022-08-09T01:03:59.377Z,24.56
2022-08-09T01:05:53.540Z,25.14
2022-08-09T01:07:03.639Z,24.91
2022-08-09T01:08:13.773Z,25.13
2022-08-09T01:09:20.812Z,25.10
2022-08-09T01:10:41.385Z,24.80
2022-08-09T01:12:01.220Z,25.08
2022-08-09T01:13:09.166Z,24.95
2022-08-09T01:14:20.798Z,24.95
2022-08-09T01:15:27.606Z,24.50
2022-08-09T01:16:36.911Z,24.81
2022-08-09T01:17:45.624Z,25.03
2022-08-09T01:19:01.991Z,24.87
2022-08-09T01:20:30.734Z,24.88
2022-08-09T01:21:51.238Z,25.01
2022-08-09T01:24:02.179Z,25.11
2022-08-09T01:24:52.435Z,25.06
2022-08-09T01:26:15.780Z,25.10
2022-08-09T01:27:20.818Z,24.95
2022-08-09T01:28:26.056Z,24.91
2022-08-09T01:29:41.349Z,24.77
2022-08-09T01:31:01.195Z,25.02
2022-08-09T01:32:31.603Z,24.41
2022-08-09T01:33:33.247Z,24.96
2022-08-09T01:34:38.359Z,24.30
2022-08-09T01:36:12.131Z,25.09
2022-08-09T01:37:21.921Z,24.86
2022-08-09T01:38:46.334Z,25.06
2022-08-09T01:39:50.876Z,24.94
2022-08-09T01:41:05.156Z,24.99
2022-08-09T01:42:10.955Z,24.92
2022-08-09T01:43:14.015Z,24.84
2022-08-09T01:44:17.776Z,24.87
2022-08-09T01:45:22.770Z,24.50
2022-08-09T01:46:40.180Z,24.58
2022-08-09T01:47:46.169Z,24.74
2022-08-09T01:48:53.940Z,24.87
2022-08-09T01:49:58.026Z,24.94
2022-08-09T01:51:00.550Z,24.58
2022-08-09T01:52:09.225Z,24.70
2022-08-09T01:53:19.201Z,24.80
2022-08-09T01:54:28.044Z,24.83
2022-08-09T01:55:35.766Z,24.73
2022-08-09T01:56:43.117Z,24.14
2022-08-09T01:57:53.105Z,24.29
2022-08-09T01:58:57.746Z,24.94
2022-08-09T02:00:19.126Z,24.79
2022-08-09T02:01:58.497Z,24.88
2022-08-09T02:02:51.677Z,25.00
2022-08-09T02:03:57.278Z,24.32
2022-08-09T02:05:05.439Z,24.62
2022-08-09T02:06:16.802Z,24.96
2022-08-09T02:08:38.899Z,24.95
2022-08-09T02:08:58.525Z,24.91
2022-08-09T02:10:05.436Z,24.99
2022-08-09T02:11:16.823Z,24.76
2022-08-09T02:12:22.612Z,24.31
2022-08-09T02:13:37.675Z,24.94
2022-08-09T02:14:44.151Z,24.71
2022-08-09T02:15:50.373Z,24.92
2022-08-09T02:17:14.799Z,24.80
2022-08-09T02:18:20.644Z,24.69
2022-08-09T02:19:24.036Z,24.50
2022-08-09T02:20:45.284Z,24.87
2022-08-09T02:21:55.681Z,24.94
2022-08-09T02:23:09.063Z,24.81
2022-08-09T02:24:25.785Z,24.73
2022-08-09T02:25:33.214Z,24.96
2022-08-09T02:26:47.548Z,24.80
2022-08-09T02:28:04.037Z,24.81
2022-08-09T02:29:31.338Z,24.61
2022-08-09T02:30:42.365Z,24.50
2022-08-09T02:31:47.504Z,24.95
2022-08-09T02:32:51.285Z,24.70
2022-08-09T02:34:07.393Z,24.91
2022-08-09T02:35:46.350Z,24.77
2022-08-09T02:36:49.046Z,24.97
2022-08-09T02:38:00.117Z,24.86
2022-08-09T02:39:14.522Z,24.76
2022-08-09T02:40:26.940Z,24.72
2022-08-09T02:42:04.028Z,24.99
2022-08-09T02:43:08.853Z,24.81
2022-08-09T02:44:29.129Z,24.86
2022-08-09T02:45:35.603Z,24.70
2022-08-09T02:46:40.259Z,24.73
2022-08-09T02:47:57.985Z,24.86
2022-08-09T02:49:05.885Z,24.90
2022-08-09T02:50:19.977Z,24.81
2022-08-09T02:51:28.235Z,24.72
2022-08-09T02:52:55.600Z,24.95
2022-08-09T02:54:01.252Z,24.69
2022-08-09T02:55:20.205Z,24.75
2022-08-09T02:56:25.761Z,24.75
2022-08-09T02:57:40.501Z,24.79
2022-08-09T02:58:55.651Z,24.93
2022-08-09T03:00:21.165Z,24.89
2022-08-09T03:01:29.376Z,24.79
2022-08-09T03:02:59.975Z,24.84
2022-08-09T03:04:17.940Z,24.76
2022-08-09T03:05:21.947Z,24.76
2022-08-09T03:06:27.345Z,24.75
2022-08-09T03:07:31.035Z,24.82
2022-08-09T03:08:38.087Z,24.39
2022-08-09T03:09:42.659Z,24.63
2022-08-09T03:10:46.401Z,24.56
2022-08-09T03:12:10.399Z,24.48
2022-08-09T03:13:15.802Z,24.87
2022-08-09T03:14:19.787Z,24.40
2022-08-09T03:16:04.666Z,24.77
2022-08-09T03:16:54.133Z,24.46
2022-08-09T03:17:58.699Z,24.63
2022-08-09T03:19:02.116Z,24.62
2022-08-09T03:20:11.460Z,24.77
2022-08-09T03:21:17.168Z,24.44
2022-08-09T03:22:25.724Z,24.84
2022-08-09T03:23:32.881Z,24.75
2022-08-09T03:24:42.670Z,24.82
2022-08-09T03:25:58.724Z,24.72
2022-08-09T03:27:08.225Z,24.72
2022-08-09T03:28:11.422Z,24.66
2022-08-09T03:29:22.626Z,24.74
2022-08-09T03:30:29.670Z,24.85
2022-08-09T03:31:42.343Z,24.86
2022-08-09T03:32:54.477Z,24.77
2022-08-09T03:33:58.400Z,24.63
2022-08-09T03:35:00.784Z,24.74
2022-08-09T03:36:13.892Z,24.62
2022-08-09T03:37:55.628Z,24.71
2022-08-09T03:38:43.474Z,24.88
2022-08-09T03:39:48.690Z,24.63
2022-08-09T03:40:58.319Z,24.66
2022-08-09T03:42:06.874Z,24.74
2022-08-09T03:43:09.076Z,24.70
2022-08-09T03:44:13.363Z,24.73
2022-08-09T03:45:17.710Z,24.70
2022-08-09T03:46:39.564Z,24.66
2022-08-09T03:47:42.093Z,24.51
2022-08-09T03:48:55.123Z,24.78
2022-08-09T03:49:59.040Z,24.59
2022-08-09T03:51:01.508Z,24.71
2022-08-09T03:52:05.871Z,24.61
2022-08-09T03:53:10.717Z,24.70
2022-08-09T03:54:14.883Z,24.65
2022-08-09T03:55:17.920Z,24.72
2022-08-09T03:56:20.108Z,24.76
2022-08-09T03:57:22.410Z,24.41
2022-08-09T03:58:24.188Z,24.55
2022-08-09T03:59:42.855Z,24.68
2022-08-09T04:00:50.444Z,24.27
2022-08-09T04:01:54.280Z,24.63
2022-08-09T04:02:57.444Z,24.53
2022-08-09T04:04:03.853Z,24.60
2022-08-09T04:05:26.585Z,24.47
2022-08-09T04:06:29.813Z,24.77
2022-08-09T04:07:33.621Z,24.05
2022-08-09T04:08:49.801Z,24.63
2022-08-09T04:09:55.684Z,24.80
2022-08-09T04:11:01.426Z,24.64
2022-08-09T04:12:11.825Z,24.81
2022-08-09T04:13:14.066Z,24.49
2022-08-09T04:14:53.446Z,24.44
2022-08-09T04:16:19.390Z,24.69
2022-08-09T04:17:09.322Z,24.89
2022-08-09T04:18:18.193Z,24.71
2022-08-09T04:19:30.294Z,24.06
2022-08-09T04:20:43.220Z,24.77
2022-08-09T04:21:46.516Z,24.85
2022-08-09T04:22:50.240Z,24.63
2022-08-09T04:23:53.724Z,24.45
2022-08-09T04:25:00.188Z,24.67
2022-08-09T04:26:03.808Z,24.66
2022-08-09T04:27:05.660Z,24.79
2022-08-09T04:28:10.727Z,24.53
2022-08-09T04:29:15.555Z,24.59
2022-08-09T04:30:20.947Z,24.73
2022-08-09T04:31:26.419Z,24.70
2022-08-09T04:32:45.849Z,24.82
2022-08-09T04:33:52.471Z,24.73
2022-08-09T04:34:58.676Z,24.73
2022-08-09T04:36:03.559Z,24.41
2022-08-09T04:37:05.456Z,24.57
2022-08-09T04:38:07.281Z,24.56
2022-08-09T04:39:09.096Z,24.55
2022-08-09T04:40:12.136Z,24.62
2022-08-09T04:41:23.584Z,24.80
2022-08-09T04:42:30.286Z,24.58
2022-08-09T04:43:37.740Z,24.50
2022-08-09T04:44:59.820Z,24.36
2022-08-09T04:46:01.835Z,24.70
2022-08-09T04:47:05.929Z,24.55
2022-08-09T04:48:10.320Z,24.72
2022-08-09T04:49:15.043Z,24.72
2022-08-09T04:50:16.941Z,24.71
2022-08-09T04:51:26.622Z,24.82
2022-08-09T04:52:35.339Z,24.14
2022-08-09T04:53:39.794Z,24.73
2022-08-09T04:54:45.205Z,24.67
2022-08-09T04:55:57.498Z,24.60
2022-08-09T04:57:01.154Z,24.63
2022-08-09T04:58:09.616Z,24.80
2022-08-09T04:59:13.137Z,24.67
2022-08-09T05:00:17.938Z,24.76
2022-08-09T05:01:19.890Z,24.71
2022-08-09T05:02:23.826Z,24.47
2022-08-09T05:03:39.940Z,24.60
2022-08-09T05:04:45.291Z,24.36
2022-08-09T05:05:52.569Z,24.67
2022-08-09T05:07:06.537Z,24.23
2022-08-09T05:08:15.196Z,24.74
2022-08-09T05:09:17.088Z,24.59
2022-08-09T05:10:19.178Z,24.35
2022-08-09T05:11:21.108Z,24.67
2022-08-09T05:12:23.046Z,24.67
2022-08-09T05:13:25.039Z,24.43
2022-08-09T05:14:31.486Z,24.68
2022-08-09T05:15:43.055Z,24.70
2022-08-09T05:16:58.776Z,24.79
2022-08-09T05:18:37.820Z,24.94
2022-08-09T05:19:25.744Z,24.76
2022-08-09T05:20:29.955Z,24.97
2022-08-09T05:21:36.476Z,24.97
2022-08-09T05:23:55.319Z,24.81
2022-08-09T05:24:12.434Z,24.94
2022-08-09T05:25:16.455Z,25.03
2022-08-09T05:26:26.489Z,25.24
2022-08-09T05:27:44.399Z,25.11
2022-08-09T05:28:48.587Z,25.18
2022-08-09T05:29:53.996Z,25.11
2022-08-09T05:30:56.072Z,24.62
2022-08-09T05:32:02.645Z,25.40
2022-08-09T05:33:09.450Z,25.30
2022-08-09T05:34:16.883Z,25.31
2022-08-09T05:35:22.085Z,25.32
2022-08-09T05:36:28.773Z,25.32
2022-08-09T05:37:30.885Z,25.49
2022-08-09T05:38:47.013Z,25.48
2022-08-09T05:39:49.660Z,25.56
2022-08-09T05:40:52.151Z,25.63
2022-08-09T05:41:53.980Z,25.59
2022-08-09T05:42:57.662Z,25.62
2022-08-09T05:43:59.943Z,25.42
2022-08-09T05:45:01.732Z,25.67
2022-08-09T05:46:03.593Z,25.78
2022-08-09T05:47:05.951Z,24.92
2022-08-09T05:48:07.795Z,25.64
2022-08-09T05:49:33.964Z,25.71
2022-08-09T05:50:50.588Z,25.80
2022-08-09T05:51:54.840Z,25.89
2022-08-09T05:52:56.996Z,25.94
2022-08-09T05:53:59.698Z,25.97
2022-08-09T05:55:03.198Z,25.76
2022-08-09T05:56:09.404Z,25.90
2022-08-09T05:57:19.162Z,25.84
2022-08-09T05:58:21.249Z,26.02
2022-08-09T05:59:23.161Z,25.87
2022-08-09T06:00:30.697Z,26.03
2022-08-09T06:01:42.886Z,25.93
2022-08-09T06:02:46.540Z,26.09
2022-08-09T06:03:58.569Z,25.86
2022-08-09T06:05:01.110Z,25.99
2022-08-09T06:06:06.043Z,26.04
2022-08-09T06:07:08.618Z,26.04
2022-08-09T06:08:11.450Z,25.95
2022-08-09T06:09:40.388Z,26.13
2022-08-09T06:10:38.233Z,26.06
2022-08-09T06:11:41.028Z,26.09
2022-08-09T06:13:11.655Z,26.18
2022-08-09T06:14:13.862Z,26.11
2022-08-09T06:15:15.709Z,26.15
2022-08-09T06:16:18.067Z,26.08
2022-08-09T06:17:19.860Z,26.21
2022-08-09T06:18:23.949Z,26.21
2022-08-09T06:19:27.627Z,26.18
2022-08-09T06:20:30.177Z,26.15
2022-08-09T06:21:32.074Z,26.15
2022-08-09T06:22:34.500Z,25.87
2022-08-09T06:23:58.206Z,26.14
2022-08-09T06:24:58.622Z,26.29
2022-08-09T06:26:01.453Z,26.00
2022-08-09T06:27:03.404Z,26.22
2022-08-09T06:28:07.720Z,26.18
2022-08-09T06:29:14.964Z,25.97
2022-08-09T06:30:17.432Z,26.21
2022-08-09T06:31:19.732Z,26.20
2022-08-09T06:32:58.900Z,26.23
2022-08-09T06:33:55.426Z,26.27
2022-08-09T06:34:59.836Z,26.30
2022-08-09T06:36:01.609Z,26.19
2022-08-09T06:37:03.735Z,26.04
2022-08-09T06:38:08.834Z,26.14
2022-08-09T06:39:12.399Z,26.10
2022-08-09T06:40:21.782Z,26.21
2022-08-09T06:42:07.776Z,25.83
2022-08-09T06:42:51.249Z,26.40
2022-08-09T06:43:53.327Z,26.08
2022-08-09T06:44:55.555Z,26.14
2022-08-09T06:46:07.908Z,26.26
2022-08-09T06:47:13.756Z,26.27
2022-08-09T06:48:16.832Z,26.30
2022-08-09T06:50:11.496Z,26.21
2022-08-09T06:50:54.525Z,26.37
2022-08-09T06:51:57.686Z,26.05
2022-08-09T06:53:00.924Z,26.17
2022-08-09T06:54:02.740Z,26.17
2022-08-09T06:55:12.804Z,26.39
2022-08-09T06:56:14.820Z,26.14
2022-08-09T06:57:16.985Z,26.35
2022-08-09T06:58:40.785Z,26.30
2022-08-09T07:00:51.002Z,26.26
2022-08-09T07:01:03.614Z,26.21
2022-08-09T07:02:05.970Z,26.01
2022-08-09T07:03:07.980Z,26.30
2022-08-09T07:04:20.036Z,26.23
2022-08-09T07:05:22.384Z,26.38
2022-08-09T07:06:25.606Z,26.31
2022-08-09T07:08:00.883Z,26.19
2022-08-09T07:08:53.555Z,26.36
2022-08-09T07:10:10.468Z,26.42
2022-08-09T07:11:25.207Z,26.38
2022-08-09T07:12:38.787Z,26.36
2022-08-09T07:14:04.120Z,26.37
2022-08-09T07:16:38.930Z,26.33
2022-08-09T07:16:39.286Z,26.20
2022-08-09T07:17:56.185Z,25.92
2022-08-09T07:19:04.011Z,26.38
2022-08-09T07:20:06.560Z,26.38
2022-08-09T07:21:10.954Z,26.26
2022-08-09T07:22:13.310Z,26.20
2022-08-09T07:23:18.940Z,26.31
2022-08-09T07:24:21.545Z,26.34
2022-08-09T07:25:38.994Z,26.45
2022-08-09T07:26:45.404Z,26.36
2022-08-09T07:27:53.255Z,26.36
2022-08-09T07:29:08.424Z,26.31
2022-08-09T07:30:15.392Z,26.47
2022-08-09T07:31:20.113Z,26.14
2022-08-09T07:32:33.375Z,26.35
2022-08-09T07:33:52.831Z,26.21
2022-08-09T07:34:57.758Z,26.29
2022-08-09T07:35:59.816Z,26.27
2022-08-09T07:37:03.678Z,26.35
2022-08-09T07:38:05.651Z,26.32
2022-08-09T07:39:11.670Z,26.32
2022-08-09T07:40:20.211Z,26.25
2022-08-09T07:41:27.121Z,26.33
2022-08-09T07:42:34.992Z,26.30
2022-08-09T07:43:50.087Z,26.37
2022-08-09T07:45:01.515Z,26.39
2022-08-09T07:46:08.482Z,26.33
2022-08-09T07:47:13.432Z,26.39
2022-08-09T07:48:22.635Z,26.26
2022-08-09T07:49:32.092Z,26.49
2022-08-09T07:50:40.590Z,26.26
2022-08-09T07:52:03.451Z,26.44
2022-08-09T07:53:05.373Z,26.29
2022-08-09T07:54:08.653Z,26.50
2022-08-09T07:55:11.496Z,26.22
2022-08-09T07:56:26.876Z,26.04
2022-08-09T07:57:35.605Z,26.51
2022-08-09T07:58:38.206Z,26.37
2022-08-09T07:59:52.190Z,26.41
2022-08-09T08:01:06.741Z,26.44
2022-08-09T08:02:19.223Z,26.24
2022-08-09T08:03:22.122Z,26.53
2022-08-09T08:04:31.194Z,26.14
2022-08-09T08:05:53.565Z,26.24
2022-08-09T08:06:56.433Z,26.37
2022-08-09T08:09:02.633Z,26.53
2022-08-09T08:09:38.664Z,26.38
2022-08-09T08:11:03.515Z,26.01
2022-08-09T08:12:24.193Z,25.81
2022-08-09T08:13:28.759Z,26.55
2022-08-09T08:14:41.989Z,26.30
2022-08-09T08:15:43.981Z,25.89
2022-08-09T08:17:00.388Z,26.40
2022-08-09T08:18:03.705Z,26.20
2022-08-09T08:19:05.601Z,26.31
2022-08-09T08:20:12.730Z,25.80
2022-08-09T08:21:15.395Z,26.31
2022-08-09T08:22:17.443Z,26.27
2022-08-09T08:23:27.343Z,26.45
2022-08-09T08:24:35.398Z,26.11
2022-08-09T08:25:44.312Z,26.42
2022-08-09T08:26:55.988Z,26.55
2022-08-09T08:27:58.930Z,25.97
2022-08-09T08:29:00.763Z,26.21
2022-08-09T08:30:05.491Z,26.37
2022-08-09T08:31:14.178Z,26.35
2022-08-09T08:32:18.943Z,26.14
2022-08-09T08:33:40.816Z,26.35
2022-08-09T08:34:55.421Z,26.52
2022-08-09T08:36:03.462Z,26.24
2022-08-09T08:37:05.773Z,26.49
2022-08-09T08:38:11.531Z,25.87
2022-08-09T08:39:14.060Z,26.38
2022-08-09T08:40:19.488Z,26.44
2022-08-09T08:41:22.297Z,25.86
2022-08-09T08:42:32.155Z,26.33
2022-08-09T08:43:34.741Z,26.45
2022-08-09T08:44:39.520Z,25.89
2022-08-09T08:45:53.704Z,26.39
2022-08-09T08:47:12.349Z,26.50
2022-08-09T08:48:16.834Z,26.57
2022-08-09T08:49:26.814Z,26.61
2022-08-09T08:50:41.359Z,26.42
2022-08-09T08:52:01.904Z,26.45
2022-08-09T08:53:06.730Z,26.34
2022-08-09T08:54:20.114Z,25.94
2022-08-09T08:55:23.427Z,26.12
2022-08-09T08:56:28.404Z,26.63
2022-08-09T08:57:35.505Z,26.63
2022-08-09T08:58:38.518Z,26.42
2022-08-09T08:59:49.636Z,26.63
2022-08-09T09:00:58.278Z,26.48
2022-08-09T09:02:00.333Z,26.50
2022-08-09T09:03:11.634Z,26.52
2022-08-09T09:04:14.370Z,26.65
2022-08-09T09:05:59.020Z,26.41
2022-08-09T09:06:49.652Z,26.69
2022-08-09T09:07:52.835Z,26.49
2022-08-09T09:08:59.471Z,26.58
2022-08-09T09:10:09.111Z,26.62
2022-08-09T09:11:17.156Z,26.01
2022-08-09T09:12:29.123Z,26.45
2022-08-09T09:13:42.081Z,26.46
2022-08-09T09:14:59.308Z,26.52
2022-08-09T09:16:02.064Z,26.70
2022-08-09T09:17:05.963Z,26.60
2022-08-09T09:18:16.017Z,26.47
2022-08-09T09:20:40.738Z,26.63
2022-08-09T09:22:03.727Z,26.55
2022-08-09T09:23:06.312Z,26.53
2022-08-09T09:24:10.300Z,25.90
2022-08-09T09:26:01.105Z,26.73
2022-08-09T09:27:00.884Z,26.77
2022-08-09T09:28:10.670Z,26.40
2022-08-09T09:29:17.021Z,26.60
2022-08-09T09:30:38.251Z,26.69
2022-08-09T09:32:06.349Z,26.68
2022-08-09T09:33:16.350Z,26.77
2022-08-09T09:34:19.726Z,26.57
2022-08-09T09:35:21.544Z,26.76
2022-08-09T09:36:23.335Z,26.65
2022-08-09T09:37:31.813Z,26.72
2022-08-09T09:38:57.002Z,26.73
2022-08-09T09:40:00.165Z,26.70
2022-08-09T09:41:04.704Z,26.68
2022-08-09T09:42:10.820Z,26.41
2022-08-09T09:43:20.751Z,26.61
2022-08-09T09:44:31.608Z,26.64
2022-08-09T09:46:41.783Z,26.41
2022-08-09T09:47:16.818Z,26.85
2022-08-09T09:48:23.597Z,26.70
2022-08-09T09:49:50.007Z,26.63
2022-08-09T09:50:51.550Z,26.83
2022-08-09T09:52:06.011Z,26.81
2022-08-09T09:53:43.679Z,26.85
2022-08-09T09:54:55.244Z,26.52
2022-08-09T09:56:05.382Z,26.86
2022-08-09T09:58:02.278Z,26.66
2022-08-09T09:58:46.709Z,26.24
2022-08-09T09:59:52.254Z,26.16
2022-08-09T10:00:59.698Z,26.62
2022-08-09T10:02:02.440Z,26.83
2022-08-09T10:03:11.605Z,26.52
2022-08-09T10:04:22.893Z,26.72
2022-08-09T10:06:03.675Z,26.34
2022-08-09T10:06:54.861Z,26.55
2022-08-09T10:08:25.876Z,26.77
2022-08-09T10:09:27.629Z,26.61
2022-08-09T10:10:31.569Z,26.15
2022-08-09T10:12:00.194Z,26.32
2022-08-09T10:12:56.167Z,26.67
2022-08-09T10:13:58.835Z,26.24
2022-08-09T10:15:17.620Z,26.86
2022-08-09T10:16:56.852Z,26.91
2022-08-09T10:18:10.724Z,26.85
2022-08-09T10:19:14.021Z,26.33
2022-08-09T10:20:27.341Z,26.89
2022-08-09T10:21:36.037Z,26.90
2022-08-09T10:22:39.481Z,26.65
2022-08-09T10:23:43.379Z,26.87
2022-08-09T10:24:45.420Z,26.74
2022-08-09T10:26:06.123Z,26.88
2022-08-09T10:27:17.109Z,26.58
2022-08-09T10:28:24.552Z,26.89
2022-08-09T10:30:22.784Z,26.77
2022-08-09T10:32:40.351Z,26.80
2022-08-09T10:34:10.570Z,26.71
2022-08-09T10:35:05.302Z,26.86
2022-08-09T10:36:13.019Z,26.20
2022-08-09T10:37:14.837Z,26.83
2022-08-09T10:38:55.238Z,26.79
2022-08-09T10:39:49.374Z,26.54
2022-08-09T10:40:51.811Z,26.83
2022-08-09T10:41:53.898Z,26.80
2022-08-09T10:42:57.232Z,26.89
2022-08-09T10:44:01.884Z,26.82
2022-08-09T10:45:12.033Z,26.66
2022-08-09T10:46:55.590Z,26.99
2022-08-09T10:48:29.815Z,27.02
2022-08-09T10:49:54.241Z,27.05
2022-08-09T10:51:15.020Z,26.70
2022-08-09T10:52:28.070Z,27.02
2022-08-09T10:53:39.664Z,27.02
2022-08-09T10:54:53.274Z,26.81
2022-08-09T10:56:22.639Z,27.04
2022-08-09T10:57:36.374Z,26.87
2022-08-09T10:58:39.845Z,26.80
2022-08-09T10:59:58.058Z,26.79
2022-08-09T11:03:02.903Z,26.77
2022-08-09T11:03:11.527Z,26.91
2022-08-09T11:04:19.873Z,26.96
2022-08-09T11:05:33.026Z,26.93
2022-08-09T11:06:37.688Z,26.96
2022-08-09T11:07:56.633Z,26.96
2022-08-09T11:09:16.005Z,26.71
2022-08-09T11:10:54.371Z,27.13
2022-08-09T11:11:58.696Z,27.11
2022-08-09T11:13:21.687Z,27.11
2022-08-09T11:14:44.008Z,27.12
2022-08-09T11:15:50.752Z,27.08
2022-08-09T11:17:15.920Z,27.09
2022-08-09T11:18:45.126Z,27.13
2022-08-09T11:20:10.668Z,27.11
2022-08-09T11:21:57.381Z,27.18
2022-08-09T11:23:13.692Z,26.99
2022-08-09T11:24:15.843Z,27.04
2022-08-09T11:25:36.154Z,26.95
2022-08-09T11:26:52.191Z,26.97
2022-08-09T11:28:08.405Z,27.02
2022-08-09T11:30:04.455Z,27.16
2022-08-09T11:31:49.668Z,27.22
2022-08-09T11:33:10.483Z,27.19
2022-08-09T11:34:32.517Z,27.20
2022-08-09T11:35:56.936Z,26.97
2022-08-09T11:37:00.846Z,27.16
2022-08-09T11:38:17.716Z,27.14
2022-08-09T11:39:20.551Z,27.01
2022-08-09T11:40:34.005Z,27.03
2022-08-09T11:41:37.890Z,27.11
2022-08-09T11:42:48.729Z,27.09
2022-08-09T11:43:52.177Z,26.90
2022-08-09T11:44:57.251Z,27.09
2022-08-09T11:46:01.637Z,27.08
2022-08-09T11:47:03.581Z,26.97
2022-08-09T11:48:25.163Z,27.11
2022-08-09T11:50:52.601Z,27.17
2022-08-09T11:52:36.722Z,27.09
2022-08-09T11:53:20.760Z,27.24
2022-08-09T11:54:29.642Z,27.06
2022-08-09T11:55:53.471Z,27.21
2022-08-09T11:57:59.697Z,27.24
2022-08-09T11:59:00.351Z,27.27
2022-08-09T12:00:15.828Z,27.21
2022-08-09T12:02:01.130Z,27.10
2022-08-09T12:02:53.123Z,27.19
2022-08-09T12:04:00.842Z,27.09
2022-08-09T12:05:02.948Z,27.09
2022-08-09T12:06:26.865Z,26.98
2022-08-09T12:07:42.336Z,27.00
2022-08-09T12:08:49.184Z,27.09
2022-08-09T12:09:51.357Z,27.09
2022-08-09T12:10:58.358Z,27.04
2022-08-09T12:12:11.980Z,27.13
2022-08-09T12:14:07.165Z,27.18
2022-08-09T12:15:04.389Z,26.91
2022-08-09T12:16:30.579Z,27.06
2022-08-09T12:17:43.406Z,27.05
2022-08-09T12:18:53.853Z,27.23
2022-08-09T12:19:59.370Z,27.13
2022-08-09T12:21:04.423Z,27.02
2022-08-09T12:22:27.081Z,27.05
2022-08-09T12:23:56.454Z,26.72
2022-08-09T12:25:15.263Z,27.11
2022-08-09T12:26:19.525Z,27.00
2022-08-09T12:28:59.794Z,27.01
2022-08-09T12:29:12.229Z,27.26
2022-08-09T12:30:36.405Z,27.10
2022-08-09T12:32:02.406Z,27.20
2022-08-09T12:33:02.920Z,27.03
2022-08-09T12:34:05.335Z,27.16
2022-08-09T12:35:12.423Z,27.19
2022-08-09T12:36:31.894Z,27.12
2022-08-09T12:37:44.154Z,27.14
2022-08-09T12:38:54.091Z,27.19
2022-08-09T12:40:00.983Z,27.04
2022-08-09T12:41:03.441Z,27.13
2022-08-09T12:42:09.109Z,27.16
2022-08-09T12:43:11.003Z,26.59
2022-08-09T12:44:15.342Z,27.13
2022-08-09T12:45:32.779Z,27.22
2022-08-09T12:46:39.896Z,27.13
2022-08-09T12:47:50.095Z,27.03
2022-08-09T12:48:55.983Z,27.04
2022-08-09T12:50:16.214Z,26.95
2022-08-09T12:51:40.452Z,27.24
2022-08-09T12:53:07.841Z,27.17
2022-08-09T12:54:10.492Z,27.19
2022-08-09T12:56:14.002Z,27.19
2022-08-09T12:56:51.401Z,27.06
2022-08-09T12:57:56.487Z,27.10
2022-08-09T12:59:20.594Z,27.29
2022-08-09T13:00:25.439Z,27.31
2022-08-09T13:01:28.367Z,26.53
2022-08-09T13:02:48.571Z,27.20
2022-08-09T13:04:08.008Z,26.47
2022-08-09T13:05:52.339Z,27.25
2022-08-09T13:07:19.435Z,27.30
2022-08-09T13:08:39.685Z,27.02
2022-08-09T13:09:43.325Z,27.35
2022-08-09T13:10:58.743Z,27.34
2022-08-09T13:12:04.322Z,27.30
2022-08-09T13:13:09.921Z,27.21
2022-08-09T13:14:41.301Z,27.26
2022-08-09T13:15:58.692Z,27.25
2022-08-09T13:17:16.032Z,27.34
2022-08-09T13:18:27.327Z,27.33
2022-08-09T13:20:09.798Z,26.53
2022-08-09T13:22:33.658Z,27.35
2022-08-09T13:22:37.765Z,27.35
2022-08-09T13:24:07.270Z,27.25
2022-08-09T13:25:07.928Z,27.21
2022-08-09T13:26:42.326Z,27.28
2022-08-09T13:27:54.413Z,27.16
2022-08-09T13:29:06.471Z,27.01
2022-08-09T13:30:49.340Z,27.30
2022-08-09T13:32:14.965Z,27.40
2022-08-09T13:33:23.639Z,27.42
2022-08-09T13:34:30.393Z,27.25
2022-08-09T13:36:23.439Z,26.59
2022-08-09T13:37:00.832Z,27.20
2022-08-09T13:38:04.716Z,27.13
2022-08-09T13:41:19.154Z,27.03
2022-08-09T13:41:55.683Z,26.78
2022-08-09T13:42:11.913Z,26.63
2022-08-09T13:43:15.693Z,27.24
2022-08-09T13:44:17.984Z,27.06
2022-08-09T13:45:20.577Z,27.18
2022-08-09T13:47:16.190Z,27.15
2022-08-09T13:47:52.750Z,27.09
2022-08-09T13:49:00.310Z,27.24
2022-08-09T13:50:12.605Z,27.12
2022-08-09T13:51:20.153Z,27.31
2022-08-09T13:52:23.260Z,27.23
2022-08-09T13:53:41.335Z,27.17
2022-08-09T13:55:00.978Z,27.25
2022-08-09T13:56:07.282Z,27.21
2022-08-09T13:57:14.528Z,27.34
2022-08-09T13:58:35.719Z,26.82
2022-08-09T13:59:41.986Z,26.64
2022-08-09T14:00:50.645Z,27.28
2022-08-09T14:01:56.253Z,27.25
2022-08-09T14:04:01.313Z,26.86
2022-08-09T14:04:27.588Z,26.68
2022-08-09T14:05:58.142Z,27.09
2022-08-09T14:06:59.767Z,27.18
2022-08-09T14:08:06.481Z,27.25
2022-08-09T14:09:09.295Z,27.32
2022-08-09T14:10:17.172Z,27.19
2022-08-09T14:11:46.857Z,27.17
2022-08-09T14:12:49.136Z,27.29
2022-08-09T14:14:15.361Z,27.12
2022-08-09T14:16:06.983Z,27.33
2022-08-09T14:16:34.865Z,27.36
2022-08-09T14:18:16.647Z,27.32
2022-08-09T14:19:00.753Z,27.29
2022-08-09T14:20:05.631Z,27.41
2022-08-09T14:21:08.992Z,27.22
2022-08-09T14:22:10.878Z,26.93
2022-08-09T14:23:20.071Z,27.38
2022-08-09T14:24:32.071Z,27.23
2022-08-09T14:25:42.848Z,27.13
2022-08-09T14:26:51.334Z,27.28
2022-08-09T14:27:58.211Z,27.26
2022-08-09T14:29:07.931Z,27.27
2022-08-09T14:30:36.299Z,27.22
2022-08-09T14:31:50.168Z,27.24
2022-08-09T14:32:55.256Z,26.88
2022-08-09T14:33:58.821Z,27.40
2022-08-09T14:35:00.734Z,27.30
2022-08-09T14:36:19.746Z,27.23
2022-08-09T14:37:28.387Z,27.21
2022-08-09T14:38:30.510Z,27.39
2022-08-09T14:39:45.355Z,27.36
2022-08-09T14:41:04.479Z,27.21
2022-08-09T14:42:12.425Z,27.39
2022-08-09T14:43:18.457Z,27.29
2022-08-09T14:44:32.548Z,27.15
2022-08-09T14:46:54.365Z,27.30
2022-08-09T14:47:12.581Z,27.37
2022-08-09T14:48:26.928Z,27.41
2022-08-09T14:49:28.805Z,27.31
2022-08-09T14:50:37.304Z,27.52
2022-08-09T14:51:42.125Z,27.41
2022-08-09T14:52:50.135Z,27.28
2022-08-09T14:53:52.712Z,27.30
2022-08-09T14:54:54.669Z,26.86
2022-08-09T14:55:56.529Z,27.41
2022-08-09T14:56:59.260Z,27.41
2022-08-09T14:58:03.661Z,27.44
2022-08-09T14:59:06.372Z,27.50
2022-08-09T15:00:16.597Z,27.16
2022-08-09T15:01:20.618Z,26.16
2022-08-09T15:02:22.479Z,27.35
2022-08-09T15:03:26.196Z,27.39
2022-08-09T15:04:28.264Z,27.32
2022-08-09T15:05:31.240Z,27.51
2022-08-09T15:06:33.144Z,27.51
2022-08-09T15:07:36.061Z,27.46
2022-08-09T15:08:38.899Z,27.29
2022-08-09T15:10:07.138Z,27.34
2022-08-09T15:11:07.126Z,27.54
2022-08-09T15:12:09.543Z,27.45
2022-08-09T15:13:13.276Z,27.39
2022-08-09T15:14:15.484Z,27.48
2022-08-09T15:15:22.073Z,27.48
2022-08-09T15:16:29.707Z,27.37